createdAt,value
2018-02-25T00:02:18.772Z,99798.17
2018-02-25T00:04:46.322Z,99802.08
2018-02-25T00:07:13.844Z,99810.16
2018-02-25T00:09:41.896Z,99804.59
2018-02-25T00:12:10.483Z,99805.13
2018-02-25T00:14:38.878Z,99811.95
2018-02-25T00:17:06.532Z,99818.81
2018-02-25T00:19:34.193Z,99812.34
2018-02-25T00:22:02.293Z,99820.55
2018-02-25T00:24:30.427Z,99819.30
2018-02-25T00:26:58.243Z,99817.55
2018-02-25T00:29:26.341Z,99813.27
2018-02-25T00:31:54.342Z,99820.52
2018-02-25T00:34:22.300Z,99822.30
2018-02-25T00:36:50.027Z,99824.00
2018-02-25T00:39:17.554Z,99818.84
2018-02-25T00:41:48.927Z,99821.42
2018-02-25T00:44:17.436Z,99822.72
2018-02-25T00:46:45.930Z,99827.42
2018-02-25T00:49:13.677Z,99828.28
2018-02-25T00:51:41.343Z,99815.02
2018-02-25T00:54:09.227Z,99826.19
2018-02-25T00:56:37.293Z,99811.15
2018-02-25T00:59:05.363Z,99812.88
2018-02-25T01:01:34.252Z,99818.44
2018-02-25T01:04:03.438Z,99826.18
2018-02-25T01:06:30.985Z,99816.31
2018-02-25T01:08:58.520Z,99823.60
2018-02-25T01:11:26.076Z,99836.04
2018-02-25T01:13:54.392Z,99830.46
2018-02-25T01:16:22.228Z,99828.33
2018-02-25T01:18:50.959Z,99835.18
2018-02-25T01:21:20.306Z,99827.03
2018-02-25T01:23:49.221Z,99835.17
2018-02-25T01:26:16.966Z,99821.48
2018-02-25T01:28:44.521Z,99838.60
2018-02-25T01:31:12.130Z,99837.32
2018-02-25T01:33:40.723Z,99830.48
2018-02-25T01:36:08.254Z,99829.61
2018-02-25T01:38:35.829Z,99818.92
2018-02-25T01:41:03.359Z,99835.63
2018-02-25T01:43:30.875Z,99834.77
2018-02-25T01:45:58.441Z,99839.91
2018-02-25T01:48:25.969Z,99840.77
2018-02-25T01:51:05.472Z,99836.48
2018-02-25T01:53:33.003Z,99834.33
2018-02-25T01:56:00.552Z,99840.75
2018-02-25T01:58:28.068Z,99836.88
2018-02-25T02:00:55.634Z,99841.16
2018-02-25T02:03:23.151Z,99831.33
2018-02-25T02:05:50.685Z,99831.30
2018-02-25T02:08:18.240Z,99832.16
2018-02-25T02:10:45.764Z,99834.31
2018-02-25T02:13:13.323Z,99823.16
2018-02-25T02:15:41.145Z,99824.02
2018-02-25T02:18:08.715Z,99842.88
2018-02-25T02:20:36.227Z,99822.73
2018-02-25T02:23:03.880Z,99820.13
2018-02-25T02:25:31.653Z,99830.87
2018-02-25T02:27:59.170Z,99843.75
2018-02-25T02:30:26.712Z,99831.67
2018-02-25T02:32:54.305Z,99824.83
2018-02-25T02:35:21.863Z,99824.81
2018-02-25T02:37:49.384Z,99825.30
2018-02-25T02:40:16.937Z,99832.16
2018-02-25T02:42:44.454Z,99821.87
2018-02-25T02:45:12.017Z,99832.53
2018-02-25T02:47:39.569Z,99829.09
2018-02-25T02:50:07.170Z,99836.80
2018-02-25T02:52:34.782Z,99840.64
2018-02-25T02:55:02.333Z,99821.83
2018-02-25T02:57:29.848Z,99829.95
2018-02-25T02:59:57.431Z,99847.48
2018-02-25T03:02:25.033Z,99846.63
2018-02-25T03:04:52.561Z,99849.21
2018-02-25T03:07:20.138Z,99847.89
2018-02-25T03:09:47.915Z,99845.73
2018-02-25T03:12:15.521Z,99858.57
2018-02-25T03:14:43.059Z,99850.08
2018-02-25T03:17:11.369Z,99863.77
2018-02-25T03:19:38.892Z,99863.79
2018-02-25T03:22:06.472Z,99861.97
2018-02-25T03:24:34.010Z,99860.66
2018-02-25T03:27:01.546Z,99866.25
2018-02-25T03:29:29.105Z,99861.05
2018-02-25T03:31:56.637Z,99828.97
2018-02-25T03:34:24.188Z,99867.56
2018-02-25T03:36:51.728Z,99872.61
2018-02-25T03:39:19.341Z,99867.41
2018-02-25T03:41:46.874Z,99871.84
2018-02-25T03:44:14.432Z,99870.89
2018-02-25T03:46:42.025Z,99868.80
2018-02-25T03:49:09.576Z,99874.25
2018-02-25T03:51:37.096Z,99867.39
2018-02-25T03:54:04.638Z,99880.30
2018-02-25T03:56:32.183Z,99878.06
2018-02-25T03:58:59.714Z,99891.84
2018-02-25T04:01:27.277Z,99880.75
2018-02-25T04:03:54.790Z,99891.38
2018-02-25T04:06:22.395Z,99892.69
2018-02-25T04:08:49.924Z,99891.35
2018-02-25T04:11:17.498Z,99905.88
2018-02-25T04:13:45.096Z,99906.70
2018-02-25T04:16:13.612Z,99898.58
2018-02-25T04:18:41.156Z,99882.61
2018-02-25T04:21:08.731Z,99888.52
2018-02-25T04:23:36.260Z,99905.27
2018-02-25T04:26:03.803Z,99892.04
2018-02-25T04:28:31.366Z,99905.35
2018-02-25T04:30:58.908Z,99901.78
2018-02-25T04:33:26.471Z,99905.59
2018-02-25T04:35:53.999Z,99904.05
2018-02-25T04:38:21.688Z,99911.64
2018-02-25T04:40:49.212Z,99914.59
2018-02-25T04:43:16.765Z,99915.01
2018-02-25T04:45:44.812Z,99873.03
2018-02-25T04:48:12.395Z,99909.92
2018-02-25T04:50:39.917Z,99912.00
2018-02-25T04:53:07.445Z,99916.27
2018-02-25T04:55:35.003Z,99915.83
2018-02-25T04:58:02.572Z,99924.74
2018-02-25T05:00:30.122Z,99922.50
2018-02-25T05:02:57.650Z,99935.89
2018-02-25T05:05:25.201Z,99937.09
2018-02-25T05:07:52.717Z,99950.70
2018-02-25T05:10:20.276Z,99943.13
2018-02-25T05:12:47.800Z,99943.72
2018-02-25T05:15:15.315Z,99946.26
2018-02-25T05:17:42.871Z,99931.88
2018-02-25T05:20:10.411Z,99946.82
2018-02-25T05:22:37.959Z,99958.77
2018-02-25T05:25:05.468Z,99941.67
2018-02-25T05:27:33.033Z,99952.94
2018-02-25T05:30:00.544Z,99948.39
2018-02-25T05:32:28.112Z,99956.95
2018-02-25T05:34:55.711Z,99955.33
2018-02-25T05:37:23.244Z,99957.58
2018-02-25T05:39:50.803Z,99959.12
2018-02-25T05:42:18.331Z,99965.52
2018-02-25T05:44:45.880Z,99958.61
2018-02-25T05:47:13.402Z,99960.30
2018-02-25T05:49:40.954Z,99948.69
2018-02-25T05:52:08.479Z,99964.28
2018-02-25T05:54:36.116Z,99963.59
2018-02-25T05:57:03.651Z,99976.88
2018-02-25T05:59:31.212Z,99972.93
2018-02-25T06:01:58.793Z,99978.04
2018-02-25T06:04:26.470Z,99979.52
2018-02-25T06:06:54.028Z,99988.63
2018-02-25T06:09:21.574Z,99996.39
2018-02-25T06:11:49.114Z,99990.20
2018-02-25T06:14:16.627Z,99999.48
2018-02-25T06:16:45.069Z,100009.80
2018-02-25T06:19:12.612Z,100007.38
2018-02-25T06:21:40.175Z,100017.77
2018-02-25T06:24:07.696Z,100009.84
2018-02-25T06:26:35.258Z,100019.74
2018-02-25T06:29:02.831Z,100021.47
2018-02-25T06:31:30.366Z,100022.41
2018-02-25T06:33:57.936Z,100022.16
2018-02-25T06:36:25.480Z,100019.25
2018-02-25T06:38:53.048Z,100022.39
2018-02-25T06:41:20.573Z,100028.89
2018-02-25T06:43:48.156Z,100035.91
2018-02-25T06:46:15.705Z,100031.88
2018-02-25T06:48:43.356Z,100031.56
2018-02-25T06:51:10.903Z,100024.11
2018-02-25T06:53:38.469Z,100042.19
2018-02-25T06:56:06.008Z,100044.50
2018-02-25T06:58:33.595Z,100051.85
2018-02-25T07:01:01.155Z,100032.66
2018-02-25T07:03:28.681Z,100050.73
2018-02-25T07:05:56.259Z,100041.34
2018-02-25T07:08:23.800Z,100040.80
2018-02-25T07:10:51.362Z,100048.50
2018-02-25T07:13:18.900Z,100053.73
2018-02-25T07:15:46.467Z,100062.16
2018-02-25T07:18:14.071Z,100046.09
2018-02-25T07:20:41.666Z,100051.46
2018-02-25T07:23:09.201Z,100040.20
2018-02-25T07:25:36.741Z,100042.95
2018-02-25T07:28:04.404Z,100042.12
2018-02-25T07:30:31.936Z,100045.02
2018-02-25T07:33:00.652Z,100042.20
2018-02-25T07:35:36.457Z,100045.67
2018-02-25T07:38:04.751Z,100056.53
2018-02-25T07:40:32.296Z,100044.75
2018-02-25T07:42:59.856Z,100057.44
2018-02-25T07:45:27.386Z,100050.91
2018-02-25T07:47:54.952Z,100038.77
2018-02-25T07:50:22.480Z,100045.78
2018-02-25T07:52:50.015Z,100042.75
2018-02-25T07:55:17.595Z,100042.70
2018-02-25T07:57:45.497Z,100046.75
2018-02-25T08:00:13.028Z,100050.07
2018-02-25T08:02:40.559Z,100049.44
2018-02-25T08:05:08.154Z,100048.72
2018-02-25T08:07:35.696Z,100045.67
2018-02-25T08:10:03.268Z,100049.25
2018-02-25T08:12:30.821Z,100056.48
2018-02-25T08:14:58.412Z,100047.84
2018-02-25T08:17:25.995Z,100041.70
2018-02-25T08:19:53.537Z,100055.18
2018-02-25T08:22:21.169Z,100051.41
2018-02-25T08:24:48.735Z,100059.12
2018-02-25T08:27:16.384Z,100047.98
2018-02-25T08:29:43.939Z,100049.55
2018-02-25T08:32:11.519Z,100056.64
2018-02-25T08:34:39.137Z,100051.53
2018-02-25T08:37:06.724Z,100064.84
2018-02-25T08:39:34.259Z,100063.14
2018-02-25T08:42:01.947Z,100069.12
2018-02-25T08:44:29.498Z,100057.75
2018-02-25T08:46:57.067Z,100063.98
2018-02-25T08:49:24.606Z,100061.72
2018-02-25T08:51:52.147Z,100045.55
2018-02-25T08:54:19.711Z,100053.78
2018-02-25T08:56:47.263Z,100056.47
2018-02-25T08:59:14.859Z,100034.53
2018-02-25T09:01:42.392Z,100049.09
2018-02-25T09:04:09.996Z,100055.16
2018-02-25T09:06:37.737Z,100062.42
2018-02-25T09:09:05.310Z,100052.61
2018-02-25T09:11:32.842Z,100050.17
2018-02-25T09:14:00.403Z,100050.97
2018-02-25T09:16:27.942Z,100058.69
2018-02-25T09:18:55.524Z,100055.78
2018-02-25T09:21:23.058Z,100054.10
2018-02-25T09:23:50.613Z,100042.55
2018-02-25T09:26:18.183Z,100043.90
2018-02-25T09:28:46.544Z,100051.17
2018-02-25T09:31:14.133Z,100062.86
2018-02-25T09:33:41.708Z,100046.52
2018-02-25T09:36:09.260Z,100054.29
2018-02-25T09:38:38.720Z,100053.38
2018-02-25T09:41:06.540Z,100067.60
2018-02-25T09:43:34.061Z,100054.37
2018-02-25T09:46:01.666Z,100049.29
2018-02-25T09:48:29.211Z,100067.19
2018-02-25T09:50:56.749Z,100071.14
2018-02-25T09:53:24.336Z,100070.73
2018-02-25T09:55:51.893Z,100063.45
2018-02-25T09:58:19.477Z,100067.34
2018-02-25T10:00:47.009Z,100066.09
2018-02-25T10:03:14.674Z,100046.77
2018-02-25T10:05:42.227Z,100059.72
2018-02-25T10:08:09.788Z,100069.58
2018-02-25T10:10:37.356Z,100064.48
2018-02-25T10:13:04.916Z,100063.19
2018-02-25T10:15:32.445Z,100064.53
2018-02-25T10:17:59.960Z,100056.38
2018-02-25T10:20:27.539Z,100067.97
2018-02-25T10:22:55.088Z,100064.10
2018-02-25T10:25:22.648Z,100066.71
2018-02-25T10:27:50.198Z,100068.39
2018-02-25T10:30:17.788Z,100070.58
2018-02-25T10:32:45.805Z,100055.10
2018-02-25T10:35:13.345Z,100066.30
2018-02-25T10:37:40.871Z,100064.57
2018-02-25T10:40:08.429Z,100070.58
2018-02-25T10:42:35.956Z,100069.29
2018-02-25T10:45:03.511Z,100066.73
2018-02-25T10:47:31.042Z,100059.43
2018-02-25T10:49:58.603Z,100059.84
2018-02-25T10:52:26.164Z,100059.84
2018-02-25T10:54:53.718Z,100049.52
2018-02-25T10:57:21.275Z,100046.07
2018-02-25T10:59:48.793Z,100040.95
2018-02-25T11:02:16.896Z,100046.49
2018-02-25T11:04:44.436Z,100044.30
2018-02-25T11:07:12.000Z,100044.30
2018-02-25T11:09:39.532Z,100037.83
2018-02-25T11:12:07.095Z,100035.11
2018-02-25T11:14:34.613Z,100030.46
2018-02-25T11:17:02.184Z,100026.08
2018-02-25T11:19:29.731Z,100022.17
2018-02-25T11:21:57.316Z,100029.16
2018-02-25T11:24:24.846Z,100017.61
2018-02-25T11:26:52.401Z,100023.98
2018-02-25T11:29:19.951Z,100018.38
2018-02-25T11:31:47.503Z,100014.50
2018-02-25T11:34:15.055Z,100003.36
2018-02-25T11:36:42.593Z,100011.11
2018-02-25T11:39:10.208Z,100011.11
2018-02-25T11:41:38.735Z,100016.20
2018-02-25T11:44:06.433Z,100002.49
2018-02-25T11:46:33.965Z,100002.10
2018-02-25T11:49:01.863Z,100005.08
2018-02-25T11:51:29.424Z,100005.06
2018-02-25T11:53:56.995Z,99997.23
2018-02-25T11:56:25.000Z,99986.94
2018-02-25T11:58:52.627Z,100001.55
2018-02-25T12:01:20.529Z,99999.84
2018-02-25T12:03:48.271Z,100003.26
2018-02-25T12:06:16.113Z,100007.13
2018-02-25T12:08:46.389Z,100000.42
2018-02-25T12:11:16.519Z,100001.95
2018-02-25T12:13:47.107Z,99992.93
2018-02-25T12:16:17.171Z,100000.19
2018-02-25T12:18:46.308Z,99996.67
2018-02-25T12:21:13.851Z,99995.30
2018-02-25T12:23:41.395Z,100001.97
2018-02-25T12:26:09.079Z,99998.83
2018-02-25T12:28:36.604Z,99991.59
2018-02-25T12:31:06.573Z,99992.33
2018-02-25T12:33:36.600Z,99994.56
2018-02-25T12:36:04.282Z,100005.64
2018-02-25T12:38:31.855Z,99990.92
2018-02-25T12:40:59.430Z,99992.25
2018-02-25T12:43:26.983Z,100003.37
2018-02-25T12:45:54.493Z,99991.35
2018-02-25T12:48:22.060Z,99989.50
2018-02-25T12:50:49.587Z,99983.62
2018-02-25T12:53:17.184Z,99954.22
2018-02-25T12:55:44.731Z,99979.03
2018-02-25T12:58:12.762Z,99981.09
2018-02-25T13:00:40.293Z,99969.66
2018-02-25T13:03:07.856Z,99962.70
2018-02-25T13:05:36.139Z,99963.91
2018-02-25T13:08:03.761Z,99958.66
2018-02-25T13:10:31.319Z,99964.34
2018-02-25T13:12:58.844Z,99965.56
2018-02-25T13:15:26.401Z,99961.24
2018-02-25T13:17:53.950Z,99959.49
2018-02-25T13:20:21.896Z,99952.52
2018-02-25T13:22:55.873Z,99956.03
2018-02-25T13:25:23.675Z,99948.55
2018-02-25T13:27:51.559Z,99957.33
2018-02-25T13:30:19.427Z,99937.03
2018-02-25T13:32:47.284Z,99954.31
2018-02-25T13:35:15.056Z,99955.54
2018-02-25T13:37:42.584Z,99955.37
2018-02-25T13:40:10.096Z,99942.38
2018-02-25T13:42:37.640Z,99942.41
2018-02-25T13:45:05.161Z,99951.64
2018-02-25T13:47:32.728Z,99945.03
2018-02-25T13:50:00.303Z,99959.81
2018-02-25T13:52:27.845Z,99932.30
2018-02-25T13:54:55.360Z,99934.31
2018-02-25T13:57:22.917Z,99945.37
2018-02-25T13:59:50.457Z,99947.37
2018-02-25T14:02:18.074Z,99946.75
2018-02-25T14:04:45.583Z,99949.02
2018-02-25T14:07:13.149Z,99946.75
2018-02-25T14:09:40.695Z,99949.93
2018-02-25T14:12:08.214Z,99945.66
2018-02-25T14:14:35.757Z,99949.34
2018-02-25T14:17:03.280Z,99951.12
2018-02-25T14:19:31.272Z,99934.86
2018-02-25T14:21:58.880Z,99940.18
2018-02-25T14:24:26.651Z,99943.66
2018-02-25T14:26:54.168Z,99942.55
2018-02-25T14:29:21.697Z,99937.68
2018-02-25T14:31:49.413Z,99943.13
2018-02-25T14:34:16.943Z,99931.61
2018-02-25T14:36:44.549Z,99943.16
2018-02-25T14:39:12.060Z,99935.94
2018-02-25T14:41:39.625Z,99933.67
2018-02-25T14:44:07.320Z,99921.06
2018-02-25T14:46:34.897Z,99942.28
2018-02-25T14:49:02.433Z,99928.73
2018-02-25T14:51:34.136Z,99937.95
2018-02-25T14:54:03.816Z,99933.19
2018-02-25T14:56:31.847Z,99922.22
2018-02-25T14:59:02.228Z,99922.89
2018-02-25T15:01:31.632Z,99923.61
2018-02-25T15:03:59.898Z,99914.52
2018-02-25T15:06:29.396Z,99928.39
2018-02-25T15:08:56.951Z,99928.71
2018-02-25T15:11:25.228Z,99919.02
2018-02-25T15:13:53.425Z,99915.58
2018-02-25T15:16:21.683Z,99925.42
2018-02-25T15:18:49.660Z,99910.72
2018-02-25T15:21:17.316Z,99918.31
2018-02-25T15:23:45.195Z,99921.77
2018-02-25T15:26:12.816Z,99919.05
2018-02-25T15:28:40.335Z,99912.99
2018-02-25T15:31:07.999Z,99923.00
2018-02-25T15:33:35.546Z,99926.05
2018-02-25T15:36:03.176Z,99925.32
2018-02-25T15:38:30.726Z,99917.20
2018-02-25T15:40:58.357Z,99916.48
2018-02-25T15:43:25.952Z,99916.62
2018-02-25T15:45:53.757Z,99917.21
2018-02-25T15:48:21.388Z,99912.92
2018-02-25T15:50:49.056Z,99908.75
2018-02-25T15:53:16.646Z,99914.30
2018-02-25T15:55:44.169Z,99909.39
2018-02-25T15:58:11.727Z,99915.61
2018-02-25T16:00:39.263Z,99894.03
2018-02-25T16:03:06.872Z,99908.15
2018-02-25T16:05:34.746Z,99920.47
2018-02-25T16:08:02.355Z,99928.22
2018-02-25T16:10:29.883Z,99916.40
2018-02-25T16:12:57.961Z,99933.48
2018-02-25T16:15:25.555Z,99924.61
2018-02-25T16:17:53.110Z,99933.84
2018-02-25T16:20:20.792Z,99890.87
2018-02-25T16:22:48.334Z,99924.48
2018-02-25T16:25:15.926Z,99925.29
2018-02-25T16:27:43.525Z,99939.75
2018-02-25T16:30:14.018Z,99932.16
2018-02-25T16:32:42.433Z,99938.87
2018-02-25T16:35:10.710Z,99937.75
2018-02-25T16:37:41.660Z,99935.31
2018-02-25T16:40:09.918Z,99937.80
2018-02-25T16:42:37.592Z,99931.78
2018-02-25T16:45:05.170Z,99936.53
2018-02-25T16:47:34.571Z,99939.84
2018-02-25T16:50:03.647Z,99936.11
2018-02-25T16:52:32.896Z,99952.66
2018-02-25T16:55:03.040Z,99954.45
2018-02-25T16:57:32.891Z,99958.27
2018-02-25T17:00:02.021Z,99947.16
2018-02-25T17:02:30.104Z,99943.50
2018-02-25T17:04:59.328Z,99939.20
2018-02-25T17:07:29.456Z,99944.16
2018-02-25T17:09:58.190Z,99953.50
2018-02-25T17:12:26.953Z,99950.38
2018-02-25T17:14:56.146Z,99966.72
2018-02-25T17:17:25.268Z,99965.68
2018-02-25T17:19:56.712Z,99955.28
2018-02-25T17:22:25.991Z,99962.91
2018-02-25T17:24:54.463Z,99949.80
2018-02-25T17:27:22.275Z,99961.35
2018-02-25T17:29:52.852Z,99965.73
2018-02-25T17:32:21.495Z,99919.02
2018-02-25T17:34:49.066Z,99973.38
2018-02-25T17:37:16.602Z,99961.27
2018-02-25T17:39:44.143Z,99970.40
2018-02-25T17:42:11.937Z,99974.28
2018-02-25T17:44:39.550Z,99979.06
2018-02-25T17:47:07.115Z,99967.47
2018-02-25T17:49:34.655Z,99970.92
2018-02-25T17:52:03.134Z,99980.73
2018-02-25T17:54:32.214Z,99982.09
2018-02-25T17:56:59.872Z,99984.20
2018-02-25T17:59:27.383Z,99979.52
2018-02-25T18:01:56.028Z,99984.20
2018-02-25T18:04:27.652Z,99975.66
2018-02-25T18:06:56.464Z,99984.23
2018-02-25T18:09:25.456Z,99990.25
2018-02-25T18:11:55.957Z,99987.31
2018-02-25T18:14:24.626Z,99978.67
2018-02-25T18:16:52.168Z,99990.30
2018-02-25T18:19:22.527Z,99988.17
2018-02-25T18:21:52.168Z,99992.02
2018-02-25T18:24:20.202Z,99987.73
2018-02-25T18:26:50.718Z,99991.62
2018-02-25T18:29:21.324Z,99999.36
2018-02-25T18:31:49.005Z,99986.89
2018-02-25T18:34:19.495Z,99982.16
2018-02-25T18:36:50.376Z,99991.66
2018-02-25T18:39:21.292Z,99987.31
2018-02-25T18:41:50.495Z,99999.77
2018-02-25T18:44:18.656Z,99992.03
2018-02-25T18:46:46.319Z,99988.64
2018-02-25T18:49:14.174Z,99989.48
2018-02-25T18:51:42.485Z,99987.78
2018-02-25T18:54:12.912Z,99992.92
2018-02-25T18:56:41.648Z,99990.77
2018-02-25T18:59:13.134Z,99997.20
2018-02-25T19:01:44.778Z,99996.36
2018-02-25T19:04:14.098Z,99993.36
2018-02-25T19:06:41.765Z,99999.34
2018-02-25T19:09:09.328Z,100001.09
2018-02-25T19:11:36.911Z,99984.77
2018-02-25T19:14:04.471Z,99995.92
2018-02-25T19:16:31.997Z,99992.06
2018-02-25T19:18:59.560Z,99985.21
2018-02-25T19:21:27.130Z,99994.20
2018-02-25T19:23:54.730Z,100000.64
2018-02-25T19:26:22.377Z,99998.94
2018-02-25T19:28:49.922Z,100008.36
2018-02-25T19:31:17.449Z,100001.08
2018-02-25T19:33:45.012Z,100004.92
2018-02-25T19:36:17.980Z,100004.50
2018-02-25T19:38:51.096Z,99995.91
2018-02-25T19:41:24.049Z,100001.52
2018-02-25T19:43:52.557Z,100005.78
2018-02-25T19:46:20.101Z,100002.37
2018-02-25T19:48:47.659Z,100017.80
2018-02-25T19:51:15.231Z,100004.06
2018-02-25T19:53:42.757Z,99992.06
2018-02-25T19:56:10.424Z,99991.22
2018-02-25T19:58:37.964Z,99999.38
2018-02-25T20:01:05.539Z,99991.63
2018-02-25T20:03:33.054Z,99991.63
2018-02-25T20:06:00.626Z,99988.20
2018-02-25T20:08:28.152Z,99987.35
2018-02-25T20:10:55.740Z,99997.64
2018-02-25T20:13:23.342Z,100005.78
2018-02-25T20:15:51.378Z,100010.95
2018-02-25T20:18:19.846Z,100002.34
2018-02-25T20:20:50.450Z,100000.66
2018-02-25T20:23:22.215Z,99995.50
2018-02-25T20:25:50.375Z,99996.78
2018-02-25T20:28:18.615Z,100010.10
2018-02-25T20:30:46.584Z,100005.37
2018-02-25T20:33:16.199Z,100007.05
2018-02-25T20:35:44.305Z,100005.79
2018-02-25T20:38:12.644Z,100006.21
2018-02-25T20:40:44.174Z,100006.23
2018-02-25T20:43:14.328Z,100001.05
2018-02-25T20:45:42.555Z,100012.66
2018-02-25T20:48:10.118Z,100007.94
2018-02-25T20:50:37.862Z,100010.06
2018-02-25T20:53:06.194Z,100018.23
2018-02-25T20:55:33.853Z,100006.66
2018-02-25T20:58:01.416Z,100019.50
2018-02-25T21:00:29.015Z,100003.65
2018-02-25T21:02:56.639Z,100015.66
2018-02-25T21:05:24.551Z,100012.20
2018-02-25T21:07:52.145Z,100010.51
2018-02-25T21:10:19.687Z,100001.91
2018-02-25T21:12:47.284Z,100007.51
2018-02-25T21:15:15.145Z,100014.77
2018-02-25T21:17:42.709Z,100011.78
2018-02-25T21:20:10.233Z,100017.77
2018-02-25T21:22:37.852Z,100014.35
2018-02-25T21:25:05.396Z,100023.78
2018-02-25T21:27:32.947Z,100018.67
2018-02-25T21:30:00.460Z,100019.08
2018-02-25T21:32:28.955Z,100008.35
2018-02-25T21:34:56.536Z,100028.08
2018-02-25T21:37:24.058Z,100029.36
2018-02-25T21:39:51.607Z,100025.52
2018-02-25T21:42:19.167Z,100026.34
2018-02-25T21:44:46.714Z,100015.20
2018-02-25T21:47:14.248Z,100017.75
2018-02-25T21:49:41.867Z,100028.52
2018-02-25T21:52:10.090Z,100028.42
2018-02-25T21:54:45.870Z,100030.56
2018-02-25T21:57:20.687Z,100027.59
2018-02-25T21:59:54.831Z,100026.33
2018-02-25T22:05:29.303Z,100031.89
2018-02-25T22:07:58.421Z,100016.03
2018-02-25T22:10:29.698Z,100030.58
2018-02-25T22:12:58.529Z,100019.45
2018-02-25T22:15:28.252Z,100019.87
2018-02-25T22:17:57.115Z,100027.14
2018-02-25T22:20:26.446Z,100027.14
2018-02-25T22:22:55.626Z,100025.86
2018-02-25T22:25:25.776Z,100020.22
2018-02-25T22:27:53.897Z,100025.48
2018-02-25T22:30:21.512Z,100031.84
2018-02-25T22:32:50.915Z,100019.39
2018-02-25T22:35:19.975Z,100023.72
2018-02-25T22:37:50.704Z,100031.85
2018-02-25T22:40:20.464Z,100030.55
2018-02-25T22:42:48.376Z,100022.83
2018-02-25T22:45:16.603Z,100023.20
2018-02-25T22:47:44.935Z,100020.21
2018-02-25T22:50:13.690Z,100027.94
2018-02-25T22:52:41.776Z,100024.45
2018-02-25T22:55:11.502Z,100024.97
2018-02-25T22:57:41.100Z,100018.02
2018-02-25T23:00:09.574Z,100008.12
2018-02-25T23:02:39.716Z,100015.00
2018-02-25T23:05:08.308Z,100020.56
2018-02-25T23:07:36.110Z,100008.20
2018-02-25T23:10:03.930Z,100027.48
2018-02-25T23:12:33.013Z,99999.95
2018-02-25T23:15:00.581Z,100020.05
2018-02-25T23:17:28.121Z,100026.11
2018-02-25T23:19:56.401Z,100029.34
2018-02-25T23:22:24.249Z,100043.23
2018-02-25T23:24:53.705Z,100037.21
2018-02-25T23:27:23.956Z,100044.45
2018-02-25T23:29:52.854Z,100027.31
2018-02-25T23:32:23.119Z,100037.87
2018-02-25T23:34:51.412Z,100043.05
2018-02-25T23:37:19.031Z,100047.75
2018-02-25T23:39:46.555Z,100047.40
2018-02-25T23:42:14.144Z,100034.45
2018-02-25T23:44:41.834Z,100039.55
2018-02-25T23:47:09.452Z,100041.34
2018-02-25T23:49:36.971Z,100043.05
2018-02-25T23:52:04.531Z,100042.16
2018-02-25T23:54:32.886Z,100048.02
2018-02-25T23:57:00.453Z,100036.42
2018-02-25T23:59:28.060Z,100049.35
